Aviation Digital Data Service (ADDS)

Output produced by METARs form (1732 UTC 24 June 2019)
found at http://www.aviationweather.gov/metar/data/
 
Forecast for: AGGN (GIZO/NUSATUPE , SB)
Text: TAF AGGN 241725Z 2418/2518 11015KT 9999 SCT018 Q 1011 1013 1013 1011
Forecast period: 1800 UTC 24 June 2019 to 1800 UTC 25 June 2019
Forecast type: FROM: standard forecast or significant change
Winds: from the ESE (110 degrees) at 17 MPH (15 knots; 7.7 m/s)
Visibility: 6 or more miles 10+ km)
Ceiling: at least 12,000 feet AGL
Clouds: scattered clouds at 1800 feet AGL
Weather: no significant weather forecast for this period